Oceanic Odyssey — C6OZ3 — position and weather

sailwx.info

Track history (hours):
 
Tides and Currents Weather Stations Pressure Air Temp Water Temp Dewpoint Dewpoint Depression Visibility Wind Speed Wind Dir Waves Ship Positions

Oceanic Odyssey

Last reported at 2017-Sep-28 08:45 UTC. Time now 2017-Oct-20 20:01 UTC.
Position N 34°09' E 134°58'.
Warning: this ship's position is 22 days out of date.

Length 103 m; draft 4.6 m.

Type: Passenger vessel. MMSI: 309913000.

Date/timePositionNaut miles runAvg speedWind from/ knotsBaromVisibWave heightAir tempDewpointWater temp
2017-Sep-28 08:45N 34°09' E 134°58'2112.8
2017-Sep-28 07:06N 34°30' E 135°05'214.1
2017-Sep-28 06:59N 34°31' E 135°06'714.7
2017-Sep-28 06:30N 34°37' E 135°11'4 7.2
2017-Sep-28 06:00N 34°41' E 135°11'0 0.4
2017-Sep-28 05:30N 34°41' E 135°11'0 0.0
2017-Sep-28 05:00N 34°41' E 135°11'0 0.0
2017-Sep-28 04:25N 34°41' E 135°11'0 0.0
2017-Sep-28 03:55N 34°41' E 135°11'0 0.0
2017-Sep-28 03:25N 34°41' E 135°11'0 0.0
2017-Sep-28 02:49N 34°41' E 135°11'0 0.1
2017-Sep-28 02:07N 34°41' E 135°11'0 0.4
2017-Sep-28 01:55N 34°41' E 135°11'0 0.0
2017-Sep-28 01:19N 34°41' E 135°11'0 0.0
2017-Sep-28 00:55N 34°41' E 135°11'0 0.0
2017-Sep-28 00:25N 34°41' E 135°11'0 0.0
2017-Sep-27 23:49N 34°41' E 135°11'0 0.0
2017-Sep-27 23:25N 34°41' E 135°11'0 0.0
2017-Sep-27 22:55N 34°41' E 135°11'0 0.0
2017-Sep-27 22:13N 34°41' E 135°11'0 0.0
2017-Sep-27 21:49N 34°41' E 135°11'0 0.0
2017-Sep-27 21:25N 34°41' E 135°11'0 0.0
2017-Sep-27 20:55N 34°41' E 135°11'0 0.0
2017-Sep-27 20:25N 34°41' E 135°11'0 0.0
2017-Sep-27 19:49N 34°41' E 135°11'0 0.0
2017-Sep-27 19:19N 34°41' E 135°11'0 0.0
2017-Sep-27 18:55N 34°41' E 135°11'0 0.0
2017-Sep-27 18:25N 34°41' E 135°11'0 0.0
2017-Sep-27 17:55N 34°41' E 135°11'0 0.0
2017-Sep-27 17:25N 34°41' E 135°11'0 0.0
2017-Sep-27 16:55N 34°41' E 135°11'0 0.0
2017-Sep-27 16:25N 34°41' E 135°11'0 0.0
2017-Sep-27 15:43N 34°41' E 135°11'0 0.0
2017-Sep-27 15:25N 34°41' E 135°11'0 0.0
2017-Sep-27 14:55N 34°41' E 135°11'0 0.0
2017-Sep-27 14:25N 34°41' E 135°11'0 0.0
2017-Sep-27 13:55N 34°41' E 135°11'0 0.0
2017-Sep-27 13:25N 34°41' E 135°11'0 0.0
2017-Sep-27 12:55N 34°41' E 135°11'0 0.0
2017-Sep-27 12:25N 34°41' E 135°11'0 0.0
2017-Sep-27 11:55N 34°41' E 135°11'0 0.0
2017-Sep-27 11:25N 34°41' E 135°11'0 0.0
2017-Sep-27 10:55N 34°41' E 135°11'0 0.0
2017-Sep-27 10:25N 34°41' E 135°11'0 0.0
2017-Sep-27 09:55N 34°41' E 135°11'0 0.0
2017-Sep-27 09:25N 34°41' E 135°11'0 0.0
2017-Sep-27 08:55N 34°41' E 135°11'0 0.0
2017-Sep-27 08:25N 34°41' E 135°11'0 0.0
2017-Sep-27 07:49N 34°41' E 135°11'0 0.0
2017-Sep-27 07:25N 34°41' E 135°11'0 0.0
2017-Sep-27 06:55N 34°41' E 135°11'0 0.0
2017-Sep-27 06:19N 34°41' E 135°11'0 0.0
2017-Sep-27 05:49N 34°41' E 135°11'0 0.0
2017-Sep-27 05:25N 34°41' E 135°11'0 0.0
2017-Sep-27 04:55N 34°41' E 135°11'0 0.0
2017-Sep-27 04:25N 34°41' E 135°11'0 0.0
2017-Sep-27 03:55N 34°41' E 135°11'0 0.0
2017-Sep-27 03:25N 34°41' E 135°11'0 0.0
2017-Sep-27 02:55N 34°41' E 135°11'0 0.0
2017-Sep-27 02:25N 34°41' E 135°11'0 0.0
2017-Sep-27 01:55N 34°41' E 135°11'0 0.0
2017-Sep-27 01:25N 34°41' E 135°11'0 0.0
2017-Sep-27 00:55N 34°41' E 135°11'0 0.0
2017-Sep-27 00:19N 34°41' E 135°11'0 0.0
2017-Sep-26 23:55N 34°41' E 135°11'0 0.0
2017-Sep-26 23:13N 34°41' E 135°11'0 0.0
2017-Sep-26 22:55N 34°41' E 135°11'0 0.0
2017-Sep-26 22:25N 34°41' E 135°11'0 0.0
2017-Sep-26 21:55N 34°41' E 135°11'0 0.0
2017-Sep-26 21:25N 34°41' E 135°11'0 0.0
2017-Sep-26 21:00N 34°41' E 135°11'1 3.0
2017-Sep-26 20:30N 34°39' E 135°11'3 6.1
2017-Sep-26 20:00N 34°36' E 135°10'3 6.4
2017-Sep-26 19:30N 34°35' E 135°07'4 8.2
2017-Sep-26 19:00N 34°36' E 135°02'4 8.7
2017-Sep-26 18:30N 34°36' E 134°57'510.0
2017-Sep-26 18:00N 34°34' E 134°51'  
Track history (hours):
 
Tides and Currents Weather Stations Pressure Air Temp Water Temp Dewpoint Dewpoint Depression Visibility Wind Speed Wind Dir Waves Ship Positions

Oceanic Odyssey

Last reported at 2017-Sep-28 08:45 UTC. Time now 2017-Oct-20 20:01 UTC.
Position N 34°09' E 134°58'.
Warning: this ship's position is 22 days out of date.

Length 103 m; draft 4.6 m.

Type: Passenger vessel. MMSI: 309913000.

Date/timePositionNaut miles runAvg speedWind from/ knotsBaromVisibWave heightAir tempDewpointWater temp
2017-Sep-28 08:45N 34°09' E 134°58'2112.8
2017-Sep-28 07:06N 34°30' E 135°05'214.1
2017-Sep-28 06:59N 34°31' E 135°06'714.7
2017-Sep-28 06:30N 34°37' E 135°11'4 7.2
2017-Sep-28 06:00N 34°41' E 135°11'0 0.4
2017-Sep-28 05:30N 34°41' E 135°11'0 0.0
2017-Sep-28 05:00N 34°41' E 135°11'0 0.0
2017-Sep-28 04:25N 34°41' E 135°11'0 0.0
2017-Sep-28 03:55N 34°41' E 135°11'0 0.0
2017-Sep-28 03:25N 34°41' E 135°11'0 0.0
2017-Sep-28 02:49N 34°41' E 135°11'0 0.1
2017-Sep-28 02:07N 34°41' E 135°11'0 0.4
2017-Sep-28 01:55N 34°41' E 135°11'0 0.0
2017-Sep-28 01:19N 34°41' E 135°11'0 0.0
2017-Sep-28 00:55N 34°41' E 135°11'0 0.0
2017-Sep-28 00:25N 34°41' E 135°11'0 0.0
2017-Sep-27 23:49N 34°41' E 135°11'0 0.0
2017-Sep-27 23:25N 34°41' E 135°11'0 0.0
2017-Sep-27 22:55N 34°41' E 135°11'0 0.0
2017-Sep-27 22:13N 34°41' E 135°11'0 0.0
2017-Sep-27 21:49N 34°41' E 135°11'0 0.0
2017-Sep-27 21:25N 34°41' E 135°11'0 0.0
2017-Sep-27 20:55N 34°41' E 135°11'0 0.0
2017-Sep-27 20:25N 34°41' E 135°11'0 0.0
2017-Sep-27 19:49N 34°41' E 135°11'0 0.0
2017-Sep-27 19:19N 34°41' E 135°11'0 0.0
2017-Sep-27 18:55N 34°41' E 135°11'0 0.0
2017-Sep-27 18:25N 34°41' E 135°11'0 0.0
2017-Sep-27 17:55N 34°41' E 135°11'0 0.0
2017-Sep-27 17:25N 34°41' E 135°11'0 0.0
2017-Sep-27 16:55N 34°41' E 135°11'0 0.0
2017-Sep-27 16:25N 34°41' E 135°11'0 0.0
2017-Sep-27 15:43N 34°41' E 135°11'0 0.0
2017-Sep-27 15:25N 34°41' E 135°11'0 0.0
2017-Sep-27 14:55N 34°41' E 135°11'0 0.0
2017-Sep-27 14:25N 34°41' E 135°11'0 0.0
2017-Sep-27 13:55N 34°41' E 135°11'0 0.0
2017-Sep-27 13:25N 34°41' E 135°11'0 0.0
2017-Sep-27 12:55N 34°41' E 135°11'0 0.0
2017-Sep-27 12:25N 34°41' E 135°11'0 0.0
2017-Sep-27 11:55N 34°41' E 135°11'0 0.0
2017-Sep-27 11:25N 34°41' E 135°11'0 0.0
2017-Sep-27 10:55N 34°41' E 135°11'0 0.0
2017-Sep-27 10:25N 34°41' E 135°11'0 0.0
2017-Sep-27 09:55N 34°41' E 135°11'0 0.0
2017-Sep-27 09:25N 34°41' E 135°11'0 0.0
2017-Sep-27 08:55N 34°41' E 135°11'0 0.0
2017-Sep-27 08:25N 34°41' E 135°11'0 0.0
2017-Sep-27 07:49N 34°41' E 135°11'0 0.0
2017-Sep-27 07:25N 34°41' E 135°11'0 0.0
2017-Sep-27 06:55N 34°41' E 135°11'0 0.0
2017-Sep-27 06:19N 34°41' E 135°11'0 0.0
2017-Sep-27 05:49N 34°41' E 135°11'0 0.0
2017-Sep-27 05:25N 34°41' E 135°11'0 0.0
2017-Sep-27 04:55N 34°41' E 135°11'0 0.0
2017-Sep-27 04:25N 34°41' E 135°11'0 0.0
2017-Sep-27 03:55N 34°41' E 135°11'0 0.0
2017-Sep-27 03:25N 34°41' E 135°11'0 0.0
2017-Sep-27 02:55N 34°41' E 135°11'0 0.0
2017-Sep-27 02:25N 34°41' E 135°11'0 0.0
2017-Sep-27 01:55N 34°41' E 135°11'0 0.0
2017-Sep-27 01:25N 34°41' E 135°11'0 0.0
2017-Sep-27 00:55N 34°41' E 135°11'0 0.0
2017-Sep-27 00:19N 34°41' E 135°11'0 0.0
2017-Sep-26 23:55N 34°41' E 135°11'0 0.0
2017-Sep-26 23:13N 34°41' E 135°11'0 0.0
2017-Sep-26 22:55N 34°41' E 135°11'0 0.0
2017-Sep-26 22:25N 34°41' E 135°11'0 0.0
2017-Sep-26 21:55N 34°41' E 135°11'0 0.0
2017-Sep-26 21:25N 34°41' E 135°11'0 0.0
2017-Sep-26 21:00N 34°41' E 135°11'1 3.0
2017-Sep-26 20:30N 34°39' E 135°11'3 6.1
2017-Sep-26 20:00N 34°36' E 135°10'3 6.4
2017-Sep-26 19:30N 34°35' E 135°07'4 8.2
2017-Sep-26 19:00N 34°36' E 135°02'4 8.7
2017-Sep-26 18:30N 34°36' E 134°57'510.0
2017-Sep-26 18:00N 34°34' E 134°51'  

Dump ship's entire track history